Solitaire — DMRE — position and weather

sailwx.info

Track history (hours):
 
Tides and Currents Weather Stations Pressure Air Temp Water Temp Dewpoint Dewpoint Depression Visibility Wind Speed Wind Dir Waves Ship Positions

Solitaire

Last reported at 2017-Aug-27 08:29 UTC. Time now 2017-Sep-20 23:45 UTC.
Position N 54°41' E 009°60'.
Warning: this ship's position is 24 days out of date.

Length 16 m.

Type: Sailing vessel. MMSI: 211330810.

Date/timePositionNaut miles runAvg speedWind from/ knotsBaromVisibWave heightAir tempDewpointWater temp
2017-Aug-27 08:29N 54°41' E 009°60'0 0.1
2017-Aug-27 05:54N 54°40' E 009°60'0 0.0
2017-Aug-27 05:24N 54°40' E 009°60'0 0.0
2017-Aug-27 05:00N 54°40' E 009°60'0 0.0
2017-Aug-27 04:24N 54°40' E 009°60'0 0.0
2017-Aug-27 03:24N 54°40' E 009°60'0 0.0
2017-Aug-27 02:48N 54°40' E 009°60'0 0.0
2017-Aug-27 02:30N 54°40' E 009°60'0 0.0
2017-Aug-27 02:00N 54°40' E 009°60'0 0.0
2017-Aug-27 01:24N 54°40' E 009°60'0 0.0
2017-Aug-27 01:00N 54°40' E 009°60'0 0.0
2017-Aug-27 00:30N 54°40' E 009°60'0 0.0
2017-Aug-26 23:24N 54°40' E 009°60'0 0.0
2017-Aug-26 22:48N 54°40' E 009°60'0 0.0
2017-Aug-26 22:30N 54°40' E 009°60'0 0.0
2017-Aug-26 22:00N 54°40' E 009°60'0 0.0
2017-Aug-26 21:30N 54°40' E 009°60'0 0.0
2017-Aug-26 20:54N 54°40' E 009°60'0 0.0
2017-Aug-26 20:30N 54°40' E 009°60'0 0.0
2017-Aug-26 20:00N 54°40' E 009°60'0 0.0
2017-Aug-26 19:30N 54°40' E 009°60'0 0.0
2017-Aug-26 18:59N 54°40' E 009°60'8 6.0
2017-Aug-26 17:44N 54°35' E 010°08'2 7.2
2017-Aug-26 17:30N 54°33' E 010°09'41 5.1
2017-Aug-26 09:25N 54°04' E 009°19'3 6.9
2017-Aug-26 08:55N 54°01' E 009°18'3 6.7
2017-Aug-26 08:30N 53°59' E 009°16'3 6.9
2017-Aug-26 08:00N 53°56' E 009°13'3 5.0
2017-Aug-26 07:29N 53°54' E 009°09'1 1.1
2017-Aug-26 07:00N 53°54' E 009°09'0 0.8
2017-Aug-26 06:30N 53°53' E 009°09'2 3.1
2017-Aug-26 06:00N 53°53' E 009°06'2 4.6
2017-Aug-26 05:30N 53°52' E 009°03'2 4.7
2017-Aug-26 05:01N 53°51' E 008°59'1 2.1
2017-Aug-26 04:30N 53°50' E 009°01'0 0.0
2017-Aug-26 04:00N 53°50' E 009°01'0 0.0
2017-Aug-26 03:27N 53°50' E 009°01'0 0.0
2017-Aug-26 02:57N 53°50' E 009°01'0 0.0
2017-Aug-26 02:21N 53°50' E 009°01'0 0.0
2017-Aug-26 02:00N 53°50' E 009°01'0 0.0
2017-Aug-26 01:30N 53°50' E 009°01'0 0.7
2017-Aug-26 01:00N 53°50' E 008°60'3 5.9
2017-Aug-26 00:31N 53°50' E 008°55'4 8.0
2017-Aug-26 00:00N 53°50' E 008°48'125 3.3
2017-Aug-24 09:52N 53°28' E 005°21'3 7.1
2017-Aug-24 09:30N 53°27' E 005°17'4 7.0
2017-Aug-24 09:00N 53°25' E 005°11'3 5.9
2017-Aug-24 08:31N 53°24' E 005°07'3 5.7
2017-Aug-24 07:59N 53°23' E 005°03'2 3.8
2017-Aug-24 07:30N 53°21' E 005°01'2 4.2
2017-Aug-24 06:59N 53°20' E 005°03'2 3.6
2017-Aug-24 06:30N 53°19' E 005°05'1 2.6
2017-Aug-24 06:00N 53°18' E 005°06'0 0.5
2017-Aug-24 05:29N 53°18' E 005°05'0 0.0
2017-Aug-24 04:56N 53°18' E 005°05'0 0.0
2017-Aug-24 04:29N 53°18' E 005°05'0 0.0
2017-Aug-24 03:59N 53°18' E 005°05'0 0.0
2017-Aug-24 03:26N 53°18' E 005°05'0 0.0
2017-Aug-24 02:56N 53°18' E 005°05'0 0.0
2017-Aug-24 02:29N 53°18' E 005°05'0 0.0
2017-Aug-24 01:56N 53°18' E 005°05'0 0.0
2017-Aug-24 01:26N 53°18' E 005°05'0 0.0
2017-Aug-24 00:59N 53°18' E 005°05'0 0.0
2017-Aug-24 00:29N 53°18' E 005°05'0 0.0
2017-Aug-23 23:59N 53°18' E 005°05'0 0.0
2017-Aug-23 23:29N 53°18' E 005°05'0 0.0
2017-Aug-23 22:59N 53°18' E 005°05'0 0.0
2017-Aug-23 22:29N 53°18' E 005°05'0 0.0
2017-Aug-23 21:56N 53°18' E 005°05'0 0.0
2017-Aug-23 21:29N 53°18' E 005°05'0 0.0
2017-Aug-23 20:59N 53°18' E 005°05'0 0.0
2017-Aug-23 20:29N 53°18' E 005°05'0 0.0
2017-Aug-23 19:56N 53°18' E 005°05'0 0.0
2017-Aug-23 19:29N 53°18' E 005°05'0 0.0
2017-Aug-23 18:59N 53°18' E 005°05'0 0.0
2017-Aug-23 18:26N 53°18' E 005°05'0 0.0
2017-Aug-23 17:50N 53°18' E 005°05'0 0.0
2017-Aug-23 17:29N 53°18' E 005°05'0 0.0
2017-Aug-23 16:56N 53°18' E 005°05'0 0.0
2017-Aug-23 16:29N 53°18' E 005°05'0 0.0
2017-Aug-23 15:59N 53°18' E 005°05'0 0.0
2017-Aug-23 15:29N 53°18' E 005°05'0 0.0
2017-Aug-23 14:59N 53°18' E 005°05'0 0.0
2017-Aug-23 14:26N 53°18' E 005°05'0 0.0
2017-Aug-23 13:29N 53°18' E 005°05'0 0.0
2017-Aug-23 13:00N 53°18' E 005°05'1 1.9
2017-Aug-23 12:30N 53°19' E 005°06'1 2.4
2017-Aug-23 12:00N 53°19' E 005°04'2 3.6
2017-Aug-23 11:30N 53°18' E 005°02'19 5.9
2017-Aug-23 08:17N 53°04' E 004°42'2 6.5
2017-Aug-23 07:57N 53°02' E 004°40'3 5.6
2017-Aug-23 07:27N 52°60' E 004°43'2 4.6
2017-Aug-23 07:00N 52°58' E 004°46'1 2.2
2017-Aug-23 06:29N 52°58' E 004°47'0 0.0
2017-Aug-23 05:53N 52°58' E 004°47'0 0.0
2017-Aug-23 05:14N 52°58' E 004°47'0 0.0
2017-Aug-23 04:59N 52°58' E 004°47'0 0.0
2017-Aug-23 04:29N 52°58' E 004°47'0 0.0
2017-Aug-23 03:56N 52°58' E 004°47'0 0.0
2017-Aug-23 03:23N 52°58' E 004°47'0 0.0
2017-Aug-23 02:59N 52°58' E 004°47'0 0.0
2017-Aug-23 02:29N 52°58' E 004°47'0 0.0
2017-Aug-23 01:59N 52°58' E 004°47'0 0.0
2017-Aug-23 01:26N 52°58' E 004°47'0 0.0
2017-Aug-23 00:56N 52°58' E 004°47'0 0.0
2017-Aug-23 00:29N 52°58' E 004°47'0 0.0
2017-Aug-22 23:56N 52°58' E 004°47'0 0.0
2017-Aug-22 23:29N 52°58' E 004°47'0 0.0
2017-Aug-22 22:38N 52°58' E 004°47'0 0.0
2017-Aug-22 22:14N 52°58' E 004°47'0 0.0
2017-Aug-22 20:59N 52°58' E 004°47'0 0.0
2017-Aug-22 20:29N 52°58' E 004°47'0 0.0
2017-Aug-22 19:47N 52°58' E 004°47'0 0.0
2017-Aug-22 19:17N 52°58' E 004°47'0 0.0
2017-Aug-22 18:59N 52°58' E 004°47'0 0.0
2017-Aug-22 18:23N 52°58' E 004°47'0 0.0
2017-Aug-22 17:53N 52°58' E 004°47'0 0.0
2017-Aug-22 17:26N 52°58' E 004°47'0 0.0
2017-Aug-22 16:50N 52°58' E 004°47'0 0.0
2017-Aug-22 16:29N 52°58' E 004°47'0 0.0
2017-Aug-22 15:56N 52°58' E 004°47'0 0.0
2017-Aug-22 15:29N 52°58' E 004°47'1 2.2
2017-Aug-22 15:00N 52°58' E 004°45'3 6.5
2017-Aug-22 14:29N 52°57' E 004°40'2 4.7
2017-Aug-22 14:00N 52°55' E 004°38'3 5.6
2017-Aug-22 13:30N 52°53' E 004°34'3 5.5
2017-Aug-22 13:01N 52°51' E 004°32'3 6.0
2017-Aug-22 12:31N 52°48' E 004°31'3 5.8
2017-Aug-22 12:01N 52°45' E 004°30'3 5.4
2017-Aug-22 11:30N 52°42' E 004°30'3 5.6
2017-Aug-22 11:00N 52°39' E 004°29'3 5.4
2017-Aug-22 10:30N 52°37' E 004°28'3 5.5
2017-Aug-22 10:00N 52°34' E 004°27'3 5.4
2017-Aug-22 09:30N 52°32' E 004°25'3 5.3
2017-Aug-22 09:00N 52°29' E 004°24'3 5.8
2017-Aug-22 08:30N 52°26' E 004°23'3 5.7
2017-Aug-22 08:00N 52°23' E 004°22'3 5.7
2017-Aug-22 07:30N 52°21' E 004°21'3 6.3
2017-Aug-22 07:00N 52°18' E 004°20'3 6.7
2017-Aug-22 06:30N 52°14' E 004°18'4 7.1
2017-Aug-22 06:00N 52°11' E 004°17'3 6.8
2017-Aug-22 05:30N 52°08' E 004°16'2 3.5
2017-Aug-22 05:00N 52°06' E 004°16'0 0.0
2017-Aug-22 04:30N 52°06' E 004°16'0 0.0
2017-Aug-22 04:00N 52°06' E 004°16'0 0.0
2017-Aug-22 03:30N 52°06' E 004°16'0 0.0
2017-Aug-22 03:00N 52°06' E 004°16'0 0.0
2017-Aug-22 02:30N 52°06' E 004°16'0 0.0
2017-Aug-22 02:00N 52°06' E 004°16'0 0.0
2017-Aug-22 01:30N 52°06' E 004°16'0 0.0
2017-Aug-22 01:00N 52°06' E 004°16'0 0.0
2017-Aug-22 00:30N 52°06' E 004°16'0 0.0
2017-Aug-22 00:00N 52°06' E 004°16'0 0.0
2017-Aug-21 23:30N 52°06' E 004°16'0 0.0
2017-Aug-21 23:00N 52°06' E 004°16'0 0.0
2017-Aug-21 22:30N 52°06' E 004°16'0 0.0
2017-Aug-21 22:00N 52°06' E 004°16'0 0.0
2017-Aug-21 21:30N 52°06' E 004°16'0 0.0
2017-Aug-21 21:00N 52°06' E 004°16'1 2.1
2017-Aug-21 20:30N 52°06' E 004°14'2 4.6
2017-Aug-21 20:00N 52°05' E 004°11'2 4.2
2017-Aug-21 19:31N 52°04' E 004°08'3 5.3
2017-Aug-21 19:01N 52°03' E 004°05'3 6.0
2017-Aug-21 18:31N 52°01' E 004°01'3 5.3
2017-Aug-21 18:01N 51°59' E 003°57'5 9.2
2017-Aug-21 17:25N 51°55' E 003°51'33 7.1
2017-Aug-21 12:42N 51°31' E 003°14'2 7.9
2017-Aug-21 12:30N 51°30' E 003°13'3 5.0
2017-Aug-21 12:00N 51°28' E 003°10'2 4.5
2017-Aug-21 11:30N 51°26' E 003°07'3 5.4
2017-Aug-21 11:00N 51°24' E 003°04'3 6.0
2017-Aug-21 10:30N 51°22' E 003°01'3 5.8
2017-Aug-21 10:00N 51°20' E 002°58'2 4.8
2017-Aug-21 09:30N 51°19' E 002°55'2 4.9
2017-Aug-21 09:01N 51°17' E 002°53'2 4.9
2017-Aug-21 08:30N 51°15' E 002°50'2 4.8
2017-Aug-21 08:00N 51°13' E 002°47'2 4.2
2017-Aug-21 07:30N 51°12' E 002°45'3 5.3
2017-Aug-21 07:00N 51°09' E 002°43'1 2.0
2017-Aug-21 06:30N 51°09' E 002°44'0 0.6
2017-Aug-21 05:58N 51°08' E 002°45'0 0.0
2017-Aug-21 05:28N 51°08' E 002°45'0 0.0
2017-Aug-21 04:58N 51°08' E 002°45'0 0.0
2017-Aug-21 04:28N 51°08' E 002°45'0 0.0
2017-Aug-21 03:58N 51°08' E 002°45'0 0.0
2017-Aug-21 03:28N 51°08' E 002°45'0 0.0
2017-Aug-21 02:58N 51°08' E 002°45'0 0.0
2017-Aug-21 02:28N 51°08' E 002°45'0 0.0
2017-Aug-21 01:58N 51°08' E 002°45'0 0.0
2017-Aug-21 01:25N 51°08' E 002°45'0 0.0
2017-Aug-21 00:58N 51°08' E 002°45'0 0.0
2017-Aug-21 00:28N 51°08' E 002°45'0 0.0
2017-Aug-20 23:58N 51°08' E 002°45'0 0.0
2017-Aug-20 23:28N 51°08' E 002°45'0 0.0
2017-Aug-20 22:58N 51°08' E 002°45'0 0.0
2017-Aug-20 22:25N 51°08' E 002°45'0 0.0
2017-Aug-20 21:58N 51°08' E 002°45'0 0.0
2017-Aug-20 21:28N 51°08' E 002°45'0 0.0
2017-Aug-20 20:58N 51°08' E 002°45'0 0.0
2017-Aug-20 20:28N 51°08' E 002°45'0 0.0
2017-Aug-20 19:58N 51°08' E 002°45'0 0.0
2017-Aug-20 19:28N 51°08' E 002°45'0 0.0
2017-Aug-20 18:58N 51°08' E 002°45'0 0.0
2017-Aug-20 18:28N 51°08' E 002°45'0 0.0
2017-Aug-20 17:55N 51°08' E 002°45'0 0.0
2017-Aug-20 17:25N 51°08' E 002°45'0 0.0
2017-Aug-20 16:58N 51°08' E 002°45'0 0.0
2017-Aug-20 16:28N 51°08' E 002°45'0 0.0
2017-Aug-20 15:58N 51°08' E 002°45'0 0.0
2017-Aug-20 15:25N 51°08' E 002°45'0 0.0
2017-Aug-20 14:58N 51°08' E 002°45'0 0.0
2017-Aug-20 14:28N 51°08' E 002°45'0 0.0
2017-Aug-20 13:58N 51°08' E 002°45'0 0.0
2017-Aug-20 13:28N 51°08' E 002°45'0 0.0
2017-Aug-20 12:58N 51°08' E 002°45'0 0.0
2017-Aug-20 12:28N 51°08' E 002°45'0 0.0
2017-Aug-20 11:58N 51°08' E 002°45'0 0.0
2017-Aug-20 11:28N 51°08' E 002°45'0 0.0
2017-Aug-20 10:58N 51°08' E 002°45'0 0.0
2017-Aug-20 10:28N 51°08' E 002°45'0 0.0
2017-Aug-20 09:58N 51°08' E 002°45'0 0.0
2017-Aug-20 09:28N 51°08' E 002°45'0 0.0
2017-Aug-20 08:58N 51°08' E 002°45'0 0.0
2017-Aug-20 08:25N 51°08' E 002°45'0 0.0
2017-Aug-20 07:58N 51°08' E 002°45'0 0.0
2017-Aug-20 07:28N 51°08' E 002°45'0 0.0
2017-Aug-20 06:58N 51°08' E 002°45'0 0.0
2017-Aug-20 06:28N 51°08' E 002°45'0 0.0
2017-Aug-20 05:58N 51°08' E 002°45'0 0.0
2017-Aug-20 05:28N 51°08' E 002°45'0 0.0
2017-Aug-20 04:58N 51°08' E 002°45'0 0.0
2017-Aug-20 04:28N 51°08' E 002°45'0 0.0
2017-Aug-20 03:58N 51°08' E 002°45'0 0.0
2017-Aug-20 03:28N 51°08' E 002°45'0 0.0
2017-Aug-20 02:58N 51°08' E 002°45'0 0.0
2017-Aug-20 02:28N 51°08' E 002°45'0 0.0
2017-Aug-20 01:58N 51°08' E 002°45'0 0.0
2017-Aug-20 01:28N 51°08' E 002°45'0 0.0
2017-Aug-20 00:58N 51°08' E 002°45'0 0.0
2017-Aug-20 00:28N 51°08' E 002°45'0 0.0
2017-Aug-19 23:58N 51°08' E 002°45'0 0.0
2017-Aug-19 23:28N 51°08' E 002°45'0 0.0
2017-Aug-19 22:58N 51°08' E 002°45'0 0.0
2017-Aug-19 22:28N 51°08' E 002°45'0 0.0
2017-Aug-19 21:55N 51°08' E 002°45'0 0.0
2017-Aug-19 21:28N 51°08' E 002°45'0 0.0
2017-Aug-19 20:58N 51°08' E 002°45'0 0.7
2017-Aug-19 20:30N 51°09' E 002°44'2 3.8
2017-Aug-19 20:00N 51°09' E 002°42'4 7.0
2017-Aug-19 19:30N 51°09' E 002°36'3 6.7
2017-Aug-19 19:00N 51°07' E 002°31'3 6.3
2017-Aug-19 18:30N 51°05' E 002°28'4 7.1
2017-Aug-19 17:54N 51°04' E 002°21'3 7.0
2017-Aug-19 17:28N 51°04' E 002°17'4 6.6
2017-Aug-19 16:55N 51°03' E 002°11'3 7.1
2017-Aug-19 16:30N 51°03' E 002°06'4 7.4
2017-Aug-19 15:58N 51°03' E 002°00'132 5.1
2017-Aug-18 13:55N 49°52' W 000°56'4 8.6
2017-Aug-18 13:28N 49°52' W 001°01'4 8.1
2017-Aug-18 13:00N 49°51' W 001°07'4 7.2
2017-Aug-18 12:30N 49°50' W 001°13'3 5.9
2017-Aug-18 11:59N 49°49' W 001°17'3 5.4
2017-Aug-18 11:30N 49°48' W 001°21'2 4.8
2017-Aug-18 11:01N 49°47' W 001°24'2 3.8
2017-Aug-18 10:31N 49°47' W 001°27'2 3.7
2017-Aug-18 10:00N 49°46' W 001°30'2 3.9
2017-Aug-18 09:30N 49°45' W 001°32'2 5.0
2017-Aug-18 09:00N 49°43' W 001°35'3 5.5
2017-Aug-18 08:31N 49°41' W 001°38'2 4.0
2017-Aug-18 08:00N 49°40' W 001°41'0 0.0
2017-Aug-18 07:31N 49°40' W 001°41'0 0.0
2017-Aug-18 07:01N 49°40' W 001°41'0 0.0
2017-Aug-18 06:31N 49°40' W 001°41'0 0.0
2017-Aug-18 06:00N 49°40' W 001°41'0 0.0
2017-Aug-18 05:30N 49°40' W 001°41'0 0.0
2017-Aug-18 05:00N 49°40' W 001°41'0 0.0
2017-Aug-18 04:30N 49°40' W 001°41'0 0.0
2017-Aug-18 04:00N 49°40' W 001°41'0 0.0
2017-Aug-18 03:30N 49°40' W 001°41'0 0.0
2017-Aug-18 02:57N 49°40' W 001°41'0 0.0
2017-Aug-18 02:27N 49°40' W 001°41'0 0.0
2017-Aug-18 02:00N 49°40' W 001°41'0 0.0
2017-Aug-18 01:30N 49°40' W 001°41'0 0.0
2017-Aug-18 01:00N 49°40' W 001°41'0 0.0
2017-Aug-18 00:30N 49°40' W 001°41'0 0.0
2017-Aug-18 00:00N 49°40' W 001°41'0 0.0
2017-Aug-17 23:21N 49°40' W 001°41'0 0.0
2017-Aug-17 23:00N 49°40' W 001°41'0 0.0
2017-Aug-17 22:30N 49°40' W 001°41'0 0.0
2017-Aug-17 22:00N 49°40' W 001°41'0 0.0
2017-Aug-17 21:30N 49°40' W 001°41'0 0.0
2017-Aug-17 21:00N 49°40' W 001°41'0 0.0
2017-Aug-17 20:30N 49°40' W 001°41'0 0.0
2017-Aug-17 19:57N 49°40' W 001°41'0 0.0
2017-Aug-17 19:30N 49°40' W 001°41'0 0.0
2017-Aug-17 19:00N 49°40' W 001°41'0 0.0
2017-Aug-17 18:27N 49°40' W 001°41'0 0.0
2017-Aug-17 18:00N 49°40' W 001°41'0 0.0
2017-Aug-17 17:30N 49°40' W 001°41'0 0.0
2017-Aug-17 17:00N 49°40' W 001°41'0 0.0
2017-Aug-17 16:30N 49°40' W 001°41'0 0.0
2017-Aug-17 16:00N 49°40' W 001°41'1 1.5
2017-Aug-17 15:30N 49°41' W 001°40'4 7.8
2017-Aug-17 15:00N 49°42' W 001°45'4 8.8
2017-Aug-17 14:30N 49°44' W 001°52'22 6.7
2017-Aug-17 11:15N 49°34' W 002°21'  
Track history (hours):
 
Tides and Currents Weather Stations Pressure Air Temp Water Temp Dewpoint Dewpoint Depression Visibility Wind Speed Wind Dir Waves Ship Positions

Solitaire

Last reported at 2017-Aug-27 08:29 UTC. Time now 2017-Sep-20 23:45 UTC.
Position N 54°41' E 009°60'.
Warning: this ship's position is 24 days out of date.

Length 16 m.

Type: Sailing vessel. MMSI: 211330810.

Date/timePositionNaut miles runAvg speedWind from/ knotsBaromVisibWave heightAir tempDewpointWater temp
2017-Aug-27 08:29N 54°41' E 009°60'0 0.1
2017-Aug-27 05:54N 54°40' E 009°60'0 0.0
2017-Aug-27 05:24N 54°40' E 009°60'0 0.0
2017-Aug-27 05:00N 54°40' E 009°60'0 0.0
2017-Aug-27 04:24N 54°40' E 009°60'0 0.0
2017-Aug-27 03:24N 54°40' E 009°60'0 0.0
2017-Aug-27 02:48N 54°40' E 009°60'0 0.0
2017-Aug-27 02:30N 54°40' E 009°60'0 0.0
2017-Aug-27 02:00N 54°40' E 009°60'0 0.0
2017-Aug-27 01:24N 54°40' E 009°60'0 0.0
2017-Aug-27 01:00N 54°40' E 009°60'0 0.0
2017-Aug-27 00:30N 54°40' E 009°60'0 0.0
2017-Aug-26 23:24N 54°40' E 009°60'0 0.0
2017-Aug-26 22:48N 54°40' E 009°60'0 0.0
2017-Aug-26 22:30N 54°40' E 009°60'0 0.0
2017-Aug-26 22:00N 54°40' E 009°60'0 0.0
2017-Aug-26 21:30N 54°40' E 009°60'0 0.0
2017-Aug-26 20:54N 54°40' E 009°60'0 0.0
2017-Aug-26 20:30N 54°40' E 009°60'0 0.0
2017-Aug-26 20:00N 54°40' E 009°60'0 0.0
2017-Aug-26 19:30N 54°40' E 009°60'0 0.0
2017-Aug-26 18:59N 54°40' E 009°60'8 6.0
2017-Aug-26 17:44N 54°35' E 010°08'2 7.2
2017-Aug-26 17:30N 54°33' E 010°09'41 5.1
2017-Aug-26 09:25N 54°04' E 009°19'3 6.9
2017-Aug-26 08:55N 54°01' E 009°18'3 6.7
2017-Aug-26 08:30N 53°59' E 009°16'3 6.9
2017-Aug-26 08:00N 53°56' E 009°13'3 5.0
2017-Aug-26 07:29N 53°54' E 009°09'1 1.1
2017-Aug-26 07:00N 53°54' E 009°09'0 0.8
2017-Aug-26 06:30N 53°53' E 009°09'2 3.1
2017-Aug-26 06:00N 53°53' E 009°06'2 4.6
2017-Aug-26 05:30N 53°52' E 009°03'2 4.7
2017-Aug-26 05:01N 53°51' E 008°59'1 2.1
2017-Aug-26 04:30N 53°50' E 009°01'0 0.0
2017-Aug-26 04:00N 53°50' E 009°01'0 0.0
2017-Aug-26 03:27N 53°50' E 009°01'0 0.0
2017-Aug-26 02:57N 53°50' E 009°01'0 0.0
2017-Aug-26 02:21N 53°50' E 009°01'0 0.0
2017-Aug-26 02:00N 53°50' E 009°01'0 0.0
2017-Aug-26 01:30N 53°50' E 009°01'0 0.7
2017-Aug-26 01:00N 53°50' E 008°60'3 5.9
2017-Aug-26 00:31N 53°50' E 008°55'4 8.0
2017-Aug-26 00:00N 53°50' E 008°48'125 3.3
2017-Aug-24 09:52N 53°28' E 005°21'3 7.1
2017-Aug-24 09:30N 53°27' E 005°17'4 7.0
2017-Aug-24 09:00N 53°25' E 005°11'3 5.9
2017-Aug-24 08:31N 53°24' E 005°07'3 5.7
2017-Aug-24 07:59N 53°23' E 005°03'2 3.8
2017-Aug-24 07:30N 53°21' E 005°01'2 4.2
2017-Aug-24 06:59N 53°20' E 005°03'2 3.6
2017-Aug-24 06:30N 53°19' E 005°05'1 2.6
2017-Aug-24 06:00N 53°18' E 005°06'0 0.5
2017-Aug-24 05:29N 53°18' E 005°05'0 0.0
2017-Aug-24 04:56N 53°18' E 005°05'0 0.0
2017-Aug-24 04:29N 53°18' E 005°05'0 0.0
2017-Aug-24 03:59N 53°18' E 005°05'0 0.0
2017-Aug-24 03:26N 53°18' E 005°05'0 0.0
2017-Aug-24 02:56N 53°18' E 005°05'0 0.0
2017-Aug-24 02:29N 53°18' E 005°05'0 0.0
2017-Aug-24 01:56N 53°18' E 005°05'0 0.0
2017-Aug-24 01:26N 53°18' E 005°05'0 0.0
2017-Aug-24 00:59N 53°18' E 005°05'0 0.0
2017-Aug-24 00:29N 53°18' E 005°05'0 0.0
2017-Aug-23 23:59N 53°18' E 005°05'0 0.0
2017-Aug-23 23:29N 53°18' E 005°05'0 0.0
2017-Aug-23 22:59N 53°18' E 005°05'0 0.0
2017-Aug-23 22:29N 53°18' E 005°05'0 0.0
2017-Aug-23 21:56N 53°18' E 005°05'0 0.0
2017-Aug-23 21:29N 53°18' E 005°05'0 0.0
2017-Aug-23 20:59N 53°18' E 005°05'0 0.0
2017-Aug-23 20:29N 53°18' E 005°05'0 0.0
2017-Aug-23 19:56N 53°18' E 005°05'0 0.0
2017-Aug-23 19:29N 53°18' E 005°05'0 0.0
2017-Aug-23 18:59N 53°18' E 005°05'0 0.0
2017-Aug-23 18:26N 53°18' E 005°05'0 0.0
2017-Aug-23 17:50N 53°18' E 005°05'0 0.0
2017-Aug-23 17:29N 53°18' E 005°05'0 0.0
2017-Aug-23 16:56N 53°18' E 005°05'0 0.0
2017-Aug-23 16:29N 53°18' E 005°05'0 0.0
2017-Aug-23 15:59N 53°18' E 005°05'0 0.0
2017-Aug-23 15:29N 53°18' E 005°05'0 0.0
2017-Aug-23 14:59N 53°18' E 005°05'0 0.0
2017-Aug-23 14:26N 53°18' E 005°05'0 0.0
2017-Aug-23 13:29N 53°18' E 005°05'0 0.0
2017-Aug-23 13:00N 53°18' E 005°05'1 1.9
2017-Aug-23 12:30N 53°19' E 005°06'1 2.4
2017-Aug-23 12:00N 53°19' E 005°04'2 3.6
2017-Aug-23 11:30N 53°18' E 005°02'19 5.9
2017-Aug-23 08:17N 53°04' E 004°42'2 6.5
2017-Aug-23 07:57N 53°02' E 004°40'3 5.6
2017-Aug-23 07:27N 52°60' E 004°43'2 4.6
2017-Aug-23 07:00N 52°58' E 004°46'1 2.2
2017-Aug-23 06:29N 52°58' E 004°47'0 0.0
2017-Aug-23 05:53N 52°58' E 004°47'0 0.0
2017-Aug-23 05:14N 52°58' E 004°47'0 0.0
2017-Aug-23 04:59N 52°58' E 004°47'0 0.0
2017-Aug-23 04:29N 52°58' E 004°47'0 0.0
2017-Aug-23 03:56N 52°58' E 004°47'0 0.0
2017-Aug-23 03:23N 52°58' E 004°47'0 0.0
2017-Aug-23 02:59N 52°58' E 004°47'0 0.0
2017-Aug-23 02:29N 52°58' E 004°47'0 0.0
2017-Aug-23 01:59N 52°58' E 004°47'0 0.0
2017-Aug-23 01:26N 52°58' E 004°47'0 0.0
2017-Aug-23 00:56N 52°58' E 004°47'0 0.0
2017-Aug-23 00:29N 52°58' E 004°47'0 0.0
2017-Aug-22 23:56N 52°58' E 004°47'0 0.0
2017-Aug-22 23:29N 52°58' E 004°47'0 0.0
2017-Aug-22 22:38N 52°58' E 004°47'0 0.0
2017-Aug-22 22:14N 52°58' E 004°47'0 0.0
2017-Aug-22 20:59N 52°58' E 004°47'0 0.0
2017-Aug-22 20:29N 52°58' E 004°47'0 0.0
2017-Aug-22 19:47N 52°58' E 004°47'0 0.0
2017-Aug-22 19:17N 52°58' E 004°47'0 0.0
2017-Aug-22 18:59N 52°58' E 004°47'0 0.0
2017-Aug-22 18:23N 52°58' E 004°47'0 0.0
2017-Aug-22 17:53N 52°58' E 004°47'0 0.0
2017-Aug-22 17:26N 52°58' E 004°47'0 0.0
2017-Aug-22 16:50N 52°58' E 004°47'0 0.0
2017-Aug-22 16:29N 52°58' E 004°47'0 0.0
2017-Aug-22 15:56N 52°58' E 004°47'0 0.0
2017-Aug-22 15:29N 52°58' E 004°47'1 2.2
2017-Aug-22 15:00N 52°58' E 004°45'3 6.5
2017-Aug-22 14:29N 52°57' E 004°40'2 4.7
2017-Aug-22 14:00N 52°55' E 004°38'3 5.6
2017-Aug-22 13:30N 52°53' E 004°34'3 5.5
2017-Aug-22 13:01N 52°51' E 004°32'3 6.0
2017-Aug-22 12:31N 52°48' E 004°31'3 5.8
2017-Aug-22 12:01N 52°45' E 004°30'3 5.4
2017-Aug-22 11:30N 52°42' E 004°30'3 5.6
2017-Aug-22 11:00N 52°39' E 004°29'3 5.4
2017-Aug-22 10:30N 52°37' E 004°28'3 5.5
2017-Aug-22 10:00N 52°34' E 004°27'3 5.4
2017-Aug-22 09:30N 52°32' E 004°25'3 5.3
2017-Aug-22 09:00N 52°29' E 004°24'3 5.8
2017-Aug-22 08:30N 52°26' E 004°23'3 5.7
2017-Aug-22 08:00N 52°23' E 004°22'3 5.7
2017-Aug-22 07:30N 52°21' E 004°21'3 6.3
2017-Aug-22 07:00N 52°18' E 004°20'3 6.7
2017-Aug-22 06:30N 52°14' E 004°18'4 7.1
2017-Aug-22 06:00N 52°11' E 004°17'3 6.8
2017-Aug-22 05:30N 52°08' E 004°16'2 3.5
2017-Aug-22 05:00N 52°06' E 004°16'0 0.0
2017-Aug-22 04:30N 52°06' E 004°16'0 0.0
2017-Aug-22 04:00N 52°06' E 004°16'0 0.0
2017-Aug-22 03:30N 52°06' E 004°16'0 0.0
2017-Aug-22 03:00N 52°06' E 004°16'0 0.0
2017-Aug-22 02:30N 52°06' E 004°16'0 0.0
2017-Aug-22 02:00N 52°06' E 004°16'0 0.0
2017-Aug-22 01:30N 52°06' E 004°16'0 0.0
2017-Aug-22 01:00N 52°06' E 004°16'0 0.0
2017-Aug-22 00:30N 52°06' E 004°16'0 0.0
2017-Aug-22 00:00N 52°06' E 004°16'0 0.0
2017-Aug-21 23:30N 52°06' E 004°16'0 0.0
2017-Aug-21 23:00N 52°06' E 004°16'0 0.0
2017-Aug-21 22:30N 52°06' E 004°16'0 0.0
2017-Aug-21 22:00N 52°06' E 004°16'0 0.0
2017-Aug-21 21:30N 52°06' E 004°16'0 0.0
2017-Aug-21 21:00N 52°06' E 004°16'1 2.1
2017-Aug-21 20:30N 52°06' E 004°14'2 4.6
2017-Aug-21 20:00N 52°05' E 004°11'2 4.2
2017-Aug-21 19:31N 52°04' E 004°08'3 5.3
2017-Aug-21 19:01N 52°03' E 004°05'3 6.0
2017-Aug-21 18:31N 52°01' E 004°01'3 5.3
2017-Aug-21 18:01N 51°59' E 003°57'5 9.2
2017-Aug-21 17:25N 51°55' E 003°51'33 7.1
2017-Aug-21 12:42N 51°31' E 003°14'2 7.9
2017-Aug-21 12:30N 51°30' E 003°13'3 5.0
2017-Aug-21 12:00N 51°28' E 003°10'2 4.5
2017-Aug-21 11:30N 51°26' E 003°07'3 5.4
2017-Aug-21 11:00N 51°24' E 003°04'3 6.0
2017-Aug-21 10:30N 51°22' E 003°01'3 5.8
2017-Aug-21 10:00N 51°20' E 002°58'2 4.8
2017-Aug-21 09:30N 51°19' E 002°55'2 4.9
2017-Aug-21 09:01N 51°17' E 002°53'2 4.9
2017-Aug-21 08:30N 51°15' E 002°50'2 4.8
2017-Aug-21 08:00N 51°13' E 002°47'2 4.2
2017-Aug-21 07:30N 51°12' E 002°45'3 5.3
2017-Aug-21 07:00N 51°09' E 002°43'1 2.0
2017-Aug-21 06:30N 51°09' E 002°44'0 0.6
2017-Aug-21 05:58N 51°08' E 002°45'0 0.0
2017-Aug-21 05:28N 51°08' E 002°45'0 0.0
2017-Aug-21 04:58N 51°08' E 002°45'0 0.0
2017-Aug-21 04:28N 51°08' E 002°45'0 0.0
2017-Aug-21 03:58N 51°08' E 002°45'0 0.0
2017-Aug-21 03:28N 51°08' E 002°45'0 0.0
2017-Aug-21 02:58N 51°08' E 002°45'0 0.0
2017-Aug-21 02:28N 51°08' E 002°45'0 0.0
2017-Aug-21 01:58N 51°08' E 002°45'0 0.0
2017-Aug-21 01:25N 51°08' E 002°45'0 0.0
2017-Aug-21 00:58N 51°08' E 002°45'0 0.0
2017-Aug-21 00:28N 51°08' E 002°45'0 0.0
2017-Aug-20 23:58N 51°08' E 002°45'0 0.0
2017-Aug-20 23:28N 51°08' E 002°45'0 0.0
2017-Aug-20 22:58N 51°08' E 002°45'0 0.0
2017-Aug-20 22:25N 51°08' E 002°45'0 0.0
2017-Aug-20 21:58N 51°08' E 002°45'0 0.0
2017-Aug-20 21:28N 51°08' E 002°45'0 0.0
2017-Aug-20 20:58N 51°08' E 002°45'0 0.0
2017-Aug-20 20:28N 51°08' E 002°45'0 0.0
2017-Aug-20 19:58N 51°08' E 002°45'0 0.0
2017-Aug-20 19:28N 51°08' E 002°45'0 0.0
2017-Aug-20 18:58N 51°08' E 002°45'0 0.0
2017-Aug-20 18:28N 51°08' E 002°45'0 0.0
2017-Aug-20 17:55N 51°08' E 002°45'0 0.0
2017-Aug-20 17:25N 51°08' E 002°45'0 0.0
2017-Aug-20 16:58N 51°08' E 002°45'0 0.0
2017-Aug-20 16:28N 51°08' E 002°45'0 0.0
2017-Aug-20 15:58N 51°08' E 002°45'0 0.0
2017-Aug-20 15:25N 51°08' E 002°45'0 0.0
2017-Aug-20 14:58N 51°08' E 002°45'0 0.0
2017-Aug-20 14:28N 51°08' E 002°45'0 0.0
2017-Aug-20 13:58N 51°08' E 002°45'0 0.0
2017-Aug-20 13:28N 51°08' E 002°45'0 0.0
2017-Aug-20 12:58N 51°08' E 002°45'0 0.0
2017-Aug-20 12:28N 51°08' E 002°45'0 0.0
2017-Aug-20 11:58N 51°08' E 002°45'0 0.0
2017-Aug-20 11:28N 51°08' E 002°45'0 0.0
2017-Aug-20 10:58N 51°08' E 002°45'0 0.0
2017-Aug-20 10:28N 51°08' E 002°45'0 0.0
2017-Aug-20 09:58N 51°08' E 002°45'0 0.0
2017-Aug-20 09:28N 51°08' E 002°45'0 0.0
2017-Aug-20 08:58N 51°08' E 002°45'0 0.0
2017-Aug-20 08:25N 51°08' E 002°45'0 0.0
2017-Aug-20 07:58N 51°08' E 002°45'0 0.0
2017-Aug-20 07:28N 51°08' E 002°45'0 0.0
2017-Aug-20 06:58N 51°08' E 002°45'0 0.0
2017-Aug-20 06:28N 51°08' E 002°45'0 0.0
2017-Aug-20 05:58N 51°08' E 002°45'0 0.0
2017-Aug-20 05:28N 51°08' E 002°45'0 0.0
2017-Aug-20 04:58N 51°08' E 002°45'0 0.0
2017-Aug-20 04:28N 51°08' E 002°45'0 0.0
2017-Aug-20 03:58N 51°08' E 002°45'0 0.0
2017-Aug-20 03:28N 51°08' E 002°45'0 0.0
2017-Aug-20 02:58N 51°08' E 002°45'0 0.0
2017-Aug-20 02:28N 51°08' E 002°45'0 0.0
2017-Aug-20 01:58N 51°08' E 002°45'0 0.0
2017-Aug-20 01:28N 51°08' E 002°45'0 0.0
2017-Aug-20 00:58N 51°08' E 002°45'0 0.0
2017-Aug-20 00:28N 51°08' E 002°45'0 0.0
2017-Aug-19 23:58N 51°08' E 002°45'0 0.0
2017-Aug-19 23:28N 51°08' E 002°45'0 0.0
2017-Aug-19 22:58N 51°08' E 002°45'0 0.0
2017-Aug-19 22:28N 51°08' E 002°45'0 0.0
2017-Aug-19 21:55N 51°08' E 002°45'0 0.0
2017-Aug-19 21:28N 51°08' E 002°45'0 0.0
2017-Aug-19 20:58N 51°08' E 002°45'0 0.7
2017-Aug-19 20:30N 51°09' E 002°44'2 3.8
2017-Aug-19 20:00N 51°09' E 002°42'4 7.0
2017-Aug-19 19:30N 51°09' E 002°36'3 6.7
2017-Aug-19 19:00N 51°07' E 002°31'3 6.3
2017-Aug-19 18:30N 51°05' E 002°28'4 7.1
2017-Aug-19 17:54N 51°04' E 002°21'3 7.0
2017-Aug-19 17:28N 51°04' E 002°17'4 6.6
2017-Aug-19 16:55N 51°03' E 002°11'3 7.1
2017-Aug-19 16:30N 51°03' E 002°06'4 7.4
2017-Aug-19 15:58N 51°03' E 002°00'132 5.1
2017-Aug-18 13:55N 49°52' W 000°56'4 8.6
2017-Aug-18 13:28N 49°52' W 001°01'4 8.1
2017-Aug-18 13:00N 49°51' W 001°07'4 7.2
2017-Aug-18 12:30N 49°50' W 001°13'3 5.9
2017-Aug-18 11:59N 49°49' W 001°17'3 5.4
2017-Aug-18 11:30N 49°48' W 001°21'2 4.8
2017-Aug-18 11:01N 49°47' W 001°24'2 3.8
2017-Aug-18 10:31N 49°47' W 001°27'2 3.7
2017-Aug-18 10:00N 49°46' W 001°30'2 3.9
2017-Aug-18 09:30N 49°45' W 001°32'2 5.0
2017-Aug-18 09:00N 49°43' W 001°35'3 5.5
2017-Aug-18 08:31N 49°41' W 001°38'2 4.0
2017-Aug-18 08:00N 49°40' W 001°41'0 0.0
2017-Aug-18 07:31N 49°40' W 001°41'0 0.0
2017-Aug-18 07:01N 49°40' W 001°41'0 0.0
2017-Aug-18 06:31N 49°40' W 001°41'0 0.0
2017-Aug-18 06:00N 49°40' W 001°41'0 0.0
2017-Aug-18 05:30N 49°40' W 001°41'0 0.0
2017-Aug-18 05:00N 49°40' W 001°41'0 0.0
2017-Aug-18 04:30N 49°40' W 001°41'0 0.0
2017-Aug-18 04:00N 49°40' W 001°41'0 0.0
2017-Aug-18 03:30N 49°40' W 001°41'0 0.0
2017-Aug-18 02:57N 49°40' W 001°41'0 0.0
2017-Aug-18 02:27N 49°40' W 001°41'0 0.0
2017-Aug-18 02:00N 49°40' W 001°41'0 0.0
2017-Aug-18 01:30N 49°40' W 001°41'0 0.0
2017-Aug-18 01:00N 49°40' W 001°41'0 0.0
2017-Aug-18 00:30N 49°40' W 001°41'0 0.0
2017-Aug-18 00:00N 49°40' W 001°41'0 0.0
2017-Aug-17 23:21N 49°40' W 001°41'0 0.0
2017-Aug-17 23:00N 49°40' W 001°41'0 0.0
2017-Aug-17 22:30N 49°40' W 001°41'0 0.0
2017-Aug-17 22:00N 49°40' W 001°41'0 0.0
2017-Aug-17 21:30N 49°40' W 001°41'0 0.0
2017-Aug-17 21:00N 49°40' W 001°41'0 0.0
2017-Aug-17 20:30N 49°40' W 001°41'0 0.0
2017-Aug-17 19:57N 49°40' W 001°41'0 0.0
2017-Aug-17 19:30N 49°40' W 001°41'0 0.0
2017-Aug-17 19:00N 49°40' W 001°41'0 0.0
2017-Aug-17 18:27N 49°40' W 001°41'0 0.0
2017-Aug-17 18:00N 49°40' W 001°41'0 0.0
2017-Aug-17 17:30N 49°40' W 001°41'0 0.0
2017-Aug-17 17:00N 49°40' W 001°41'0 0.0
2017-Aug-17 16:30N 49°40' W 001°41'0 0.0
2017-Aug-17 16:00N 49°40' W 001°41'1 1.5
2017-Aug-17 15:30N 49°41' W 001°40'4 7.8
2017-Aug-17 15:00N 49°42' W 001°45'4 8.8
2017-Aug-17 14:30N 49°44' W 001°52'22 6.7
2017-Aug-17 11:15N 49°34' W 002°21'  

Dump ship's entire track history